Map

Track Data

SID SEASON NUMBER BASIN SUBBASIN NAME ISO_TIME NATURE LAT LON WMO_WIND WMO_PRES WMO_AGENCY TRACK_TYPE DIST2LAND LANDFALL IFLAG USA_AGENCY USA_ATCF_ID USA_LAT USA_LON USA_RECORD USA_STATUS USA_WIND USA_PRES USA_SSHS USA_R34_NE USA_R34_SE USA_R34_SW USA_R34_NW USA_R50_NE USA_R50_SE USA_R50_SW USA_R50_NW USA_R64_NE USA_R64_SE USA_R64_SW USA_R64_NW USA_POCI USA_ROCI USA_RMW USA_EYE TOKYO_LAT TOKYO_LON TOKYO_GRADE TOKYO_WIND TOKYO_PRES TOKYO_R50_DIR TOKYO_R50_LONG TOKYO_R50_SHORT TOKYO_R30_DIR TOKYO_R30_LONG TOKYO_R30_SHORT TOKYO_LAND CMA_LAT CMA_LON CMA_CAT CMA_WIND CMA_PRES HKO_LAT HKO_LON HKO_CAT HKO_WIND HKO_PRES NEWDELHI_LAT NEWDELHI_LON NEWDELHI_GRADE NEWDELHI_WIND NEWDELHI_PRES NEWDELHI_CI NEWDELHI_DP NEWDELHI_POCI REUNION_LAT REUNION_LON REUNION_TYPE REUNION_WIND REUNION_PRES REUNION_TNUM REUNION_CI REUNION_RMW REUNION_R34_NE REUNION_R34_SE REUNION_R34_SW REUNION_R34_NW REUNION_R50_NE REUNION_R50_SE REUNION_R50_SW REUNION_R50_NW REUNION_R64_NE REUNION_R64_SE REUNION_R64_SW REUNION_R64_NW BOM_LAT BOM_LON BOM_TYPE BOM_WIND BOM_PRES BOM_TNUM BOM_CI BOM_RMW BOM_R34_NE BOM_R34_SE BOM_R34_SW BOM_R34_NW BOM_R50_NE BOM_R50_SE BOM_R50_SW BOM_R50_NW BOM_R64_NE BOM_R64_SE BOM_R64_SW BOM_R64_NW BOM_ROCI BOM_POCI BOM_EYE BOM_POS_METHOD BOM_PRES_METHOD NADI_LAT NADI_LON NADI_CAT NADI_WIND NADI_PRES WELLINGTON_LAT WELLINGTON_LON WELLINGTON_WIND WELLINGTON_PRES DS824_LAT DS824_LON DS824_STAGE DS824_WIND DS824_PRES TD9636_LAT TD9636_LON TD9636_STAGE TD9636_WIND TD9636_PRES TD9635_LAT TD9635_LON TD9635_WIND TD9635_PRES TD9635_ROCI NEUMANN_LAT NEUMANN_LON NEUMANN_CLASS NEUMANN_WIND NEUMANN_PRES MLC_LAT MLC_LON MLC_CLASS MLC_WIND MLC_PRES USA_GUST BOM_GUST BOM_GUST_PER REUNION_GUST REUNION_GUST_PER USA_SEAHGT USA_SEARAD_NE USA_SEARAD_SE USA_SEARAD_SW USA_SEARAD_NW STORM_SPEED STORM_DIR
1983066S11213 1983 14 SP MM REWA 1983-03-07 00:00:00 TS -11.2750 -147.200 30 997 wellington main 2727 2715 O_______O_O_O_ jtwc_sh SH171983 -11.3000 -147.400 30 -1 -11.0000 -147.000 30 997 -11.5000 -147.000 1 -11.3000 -147.400 TC 30 3 222
1983066S11213 1983 14 SP MM REWA 1983-03-07 03:00:00 TS -11.3817 -147.298 main 2715 2702 P_______P_P_P_ SH171983 -11.3875 -147.498 30 -1 -11.1766 -147.078 31 996 -11.5751 -147.117 1 -11.3875 -147.498 TC 30 3 220
1983066S11213 1983 14 SP MM REWA 1983-03-07 06:00:00 TS -11.5006 -147.396 main 2702 2690 O_______P_P_O_ jtwc_sh SH171983 -11.5000 -147.600 31 -1 -11.3525 -147.155 32 996 -11.6501 -147.227 1 -11.5000 -147.600 TC 30 3 217
1983066S11213 1983 14 SP MM REWA 1983-03-07 09:00:00 TS -11.6381 -147.492 main 2690 2676 P_______P_P_P_ SH171983 -11.6500 -147.707 33 -1 -11.5272 -147.229 33 995 -11.7250 -147.324 1 -11.6500 -147.707 TC 32 3 213
1983066S11213 1983 14 SP MM REWA 1983-03-07 12:00:00 TS -11.7750 -147.575 35 995 wellington main 2676 2675 O_______O_O_O_ jtwc_sh SH171983 -11.8000 -147.800 35 0 -11.7000 -147.300 35 995 -11.8000 -147.400 1 -11.8000 -147.800 TC 35 3 209
1983066S11213 1983 14 SP MM REWA 1983-03-07 15:00:00 TS -11.8831 -147.630 main 2675 2663 P_______P_P_P_ SH171983 -11.8925 -147.850 37 0 -11.8709 -147.367 36 993 -11.8765 -147.452 1 -11.8925 -147.850 TC 37 3 205
1983066S11213 1983 14 SP MM REWA 1983-03-07 18:00:00 TS -12.0012 -147.682 main 2663 2649 O_______P_P_O_ jtwc_sh SH171983 -12.0000 -147.900 40 0 -12.0425 -147.435 37 992 -11.9624 -147.493 1 -12.0000 -147.900 TC 40 3 204
1983066S11213 1983 14 SP MM REWA 1983-03-07 21:00:00 TS -12.1675 -147.758 main 2649 2648 P_______P_P_P_ SH171983 -12.1925 -147.992 42 0 -12.2178 -147.511 38 991 -12.0671 -147.537 1 -12.1925 -147.992 TC 42 4 205
1983066S11213 1983 14 SP MM REWA 1983-03-08 00:00:00 TS -12.3500 -147.850 40 990 wellington main 2637 2635 O_______O_O_O_ jtwc_sh SH171983 -12.4000 -148.100 45 0 -12.4000 -147.600 40 990 -12.2000 -147.600 2 -12.4000 -148.100 TC 45 4 209
1983066S11213 1983 14 SP MM REWA 1983-03-08 03:00:00 TS -12.5123 -147.956 main 2624 2611 P_______P_P_P_ SH171983 -12.5425 -148.200 47 0 -12.5928 -147.715 41 989 -12.3713 -147.707 2 -12.5425 -148.200 TC 47 4 212
1983066S11213 1983 14 SP MM REWA 1983-03-08 06:00:00 TS -12.6906 -148.069 main 2611 2598 O_______P_P_O_ jtwc_sh SH171983 -12.7000 -148.300 50 0 -12.7925 -147.842 42 988 -12.5701 -147.835 2 -12.7000 -148.300 TC 50 5 209
1983066S11213 1983 14 SP MM REWA 1983-03-08 09:00:00 TS -12.9199 -148.186 main 2598 2586 P_______P_P_P_ SH171983 -12.9500 -148.400 52 0 -12.9960 -147.974 43 987 -12.7838 -147.970 2 -12.9500 -148.400 TC 52 5 206
1983066S11213 1983 14 SP MM REWA 1983-03-08 12:00:00 TS -13.1500 -148.300 45 987 wellington main 2586 2573 O_______O_O_O_ jtwc_sh SH171983 -13.2000 -148.500 55 0 -13.2000 -148.100 45 987 -13.0000 -148.100 2 -13.2000 -148.500 TC 55 5 207
1983066S11213 1983 14 SP MM REWA 1983-03-08 15:00:00 TS -13.3250 -148.403 main 2573 2561 P_______P_P_P_ SH171983 -13.3500 -148.600 58 0 -13.4040 -148.203 48 984 -13.1959 -148.207 2 -13.3500 -148.600 TC 57 4 209
1983066S11213 1983 14 SP MM REWA 1983-03-08 18:00:00 TS -13.5000 -148.502 main 2561 2549 O_______P_P_O_ jtwc_sh SH171983 -13.5000 -148.700 62 0 -13.6074 -148.300 52 981 -13.3925 -148.308 2 -13.5000 -148.700 TC 60 4 206
1983066S11213 1983 14 SP MM REWA 1983-03-08 21:00:00 TS -13.7250 -148.604 main 2549 2537 P_______P_P_P_ SH171983 -13.7500 -148.807 66 1 -13.8071 -148.397 56 978 -13.5928 -148.404 2 -13.7500 -148.807 TC 65 5 203
1983066S11213 1983 14 SP MM REWA 1983-03-09 00:00:00 TS -13.9500 -148.700 60 975 wellington main 2537 2525 O_______O_O_O_ jtwc_sh SH171983 -14.0000 -148.900 70 1 -14.0000 -148.500 60 975 -13.8000 -148.500 4 -14.0000 -148.900 TC 70 4 202
1983066S11213 1983 14 SP MM REWA 1983-03-09 03:00:00 TS -14.1345 -148.774 main 2525 2524 P_______P_P_P_ SH171983 -14.1650 -148.950 72 1 -14.1781 -148.610 68 963 -14.0299 -148.588 4 -14.1650 -148.950 TC 72 4 203
1983066S11213 1983 14 SP MM REWA 1983-03-09 06:00:00 TS -14.3037 -148.851 main 2514 2513 O_______P_P_O_ jtwc_sh SH171983 -14.3000 -149.000 75 1 -14.3499 -148.728 77 952 -14.2649 -148.678 4 -14.3000 -149.000 TC 75 4 206
1983066S11213 1983 14 SP MM REWA 1983-03-09 09:00:00 TS -14.4823 -148.951 main 2502 2491 P_______P_P_P_ SH171983 -14.4575 -149.085 77 1 -14.5218 -148.857 86 941 -14.4924 -148.779 4 -14.4575 -149.085 TC 77 4 212
1983066S11213 1983 14 SP MM REWA 1983-03-09 12:00:00 TS -14.6500 -149.075 95 930 wellington main 2491 2480 O_______O_O_O_ jtwc_sh SH171983 -14.6000 -149.200 80 1 -14.7000 -149.000 95 930 -14.7000 -148.900 4 -14.6000 -149.200 TC 80 4 219
1983066S11213 1983 14 SP MM REWA 1983-03-09 15:00:00 TS -14.8053 -149.217 main 2480 2459 P_______P_P_P_ SH171983 -14.7000 -149.335 82 1 -14.9293 -149.144 96 928 -14.8919 -149.053 4 -14.7000 -149.335 TC 82 4 224
1983066S11213 1983 14 SP MM REWA 1983-03-09 18:00:00 TS -14.9550 -149.383 main 2459 2437 O_______P_P_O_ jtwc_sh SH171983 -14.8000 -149.500 85 2 -15.1598 -149.305 97 927 -15.0600 -149.227 4 -14.8000 -149.500 TC 85 5 228
1983066S11213 1983 14 SP MM REWA 1983-03-09 21:00:00 TS -15.1222 -149.579 main 2437 2416 P_______P_P_P_ SH171983 -14.9650 -149.707 87 2 -15.3605 -149.488 98 926 -15.1981 -149.413 4 -14.9650 -149.707 TC 87 5 232
1983066S11213 1983 14 SP MM REWA 1983-03-10 00:00:00 TS -15.2500 -149.775 100 925 wellington main 2416 2406 O_______O_O_O_ jtwc_sh SH171983 -15.1000 -149.900 90 2 -15.5000 -149.700 100 925 -15.3000 -149.600 4 -15.1000 -149.900 TC 90 4 245
1983066S11213 1983 14 SP MM REWA 1983-03-10 03:00:00 TS -15.2857 -149.936 main 2406 2384 P_______P_P_P_ SH171983 -15.1150 -150.008 90 2 -15.5398 -149.959 98 926 -15.3731 -149.771 4 -15.1150 -150.008 TC 92 3 264
1983066S11213 1983 14 SP MM REWA 1983-03-10 06:00:00 TS -15.2819 -150.096 main 2384 2363 O_______P_P_O_ jtwc_sh SH171983 -15.1000 -150.100 90 2 -15.5177 -150.243 97 927 -15.4099 -149.943 4 -15.1000 -150.100 TC 95 953 3 268
1983066S11213 1983 14 SP MM REWA 1983-03-10 09:00:00 TS -15.2984 -150.283 main 2363 2341 P_______P_P_P_ SH171983 -15.1575 -150.242 90 2 -15.4617 -150.531 96 928 -15.4168 -150.118 4 -15.1575 -150.242 TC 92 4 267
1983066S11213 1983 14 SP MM REWA 1983-03-10 12:00:00 TS -15.3000 -150.475 95 930 wellington main 2341 2320 O_______O_O_O_ jtwc_sh SH171983 -15.2000 -150.400 90 2 -15.4000 -150.800 95 930 -15.4000 -150.300 4 -15.2000 -150.400 TC 90 4 277
1983066S11213 1983 14 SP MM REWA 1983-03-10 15:00:00 TS -15.2525 -150.663 main 2320 2309 P_______P_P_P_ SH171983 -15.1500 -150.550 90 2 -15.3505 -151.038 92 933 -15.3595 -150.513 4 -15.1500 -150.550 TC 90 4 285
1983066S11213 1983 14 SP MM REWA 1983-03-10 18:00:00 TS -15.2013 -150.846 main 2309 2287 O_______P_P_O_ jtwc_sh SH171983 -15.1000 -150.700 90 2 -15.3049 -151.253 90 937 -15.3001 -150.730 4 -15.1000 -150.700 TC 90 3 278
1983066S11213 1983 14 SP MM REWA 1983-03-10 21:00:00 TS -15.2019 -151.018 main 2287 2266 P_______P_P_P_ SH171983 -15.1425 -150.850 90 2 -15.2818 -151.441 87 941 -15.2407 -150.932 4 -15.1425 -150.850 TC 90 3 266
1983066S11213 1983 14 SP MM REWA 1983-03-11 00:00:00 TS -15.2250 -151.175 85 945 wellington main 2266 2255 O_______O_O_O_ jtwc_sh SH171983 -15.2000 -151.000 90 2 -15.3000 -151.600 85 945 -15.2000 -151.100 4 -15.2000 -151.000 TC 90 3 261
1983066S11213 1983 14 SP MM REWA 1983-03-11 03:00:00 TS -15.2473 -151.317 main 2255 2245 P_______P_P_P_ SH171983 -15.2000 -151.150 88 2 -15.3940 -151.749 85 945 -15.1952 -151.219 4 -15.2000 -151.150 TC 87 3 257
1983066S11213 1983 14 SP MM REWA 1983-03-11 06:00:00 TS -15.2850 -151.442 main 2245 2234 O_______P_P_O_ jtwc_sh SH171983 -15.2000 -151.300 87 2 -15.5274 -151.867 85 945 -15.2124 -151.302 4 -15.2000 -151.300 TC 85 3 245
1983066S11213 1983 14 SP MM REWA 1983-03-11 09:00:00 TS -15.3514 -151.553 main 2224 2224 P_______P_P_P_ SH171983 -15.2425 -151.450 86 2 -15.6721 -151.952 85 945 -15.2484 -151.360 4 -15.2425 -151.450 TC 85 2 235
1983066S11213 1983 14 SP MM REWA 1983-03-11 12:00:00 TS -15.4250 -151.650 85 945 wellington main 2224 2203 O_______O_O_O_ jtwc_sh SH171983 -15.3000 -151.600 85 2 -15.8000 -152.000 85 945 -15.3000 -151.400 4 -15.3000 -151.600 TC 85 3 240
1983066S11213 1983 14 SP MM REWA 1983-03-11 15:00:00 TS -15.4792 -151.784 main 2203 2192 P_______P_P_P_ SH171983 -15.3425 -151.780 85 2 -15.8713 -152.064 87 941 -15.3604 -151.512 4 -15.3425 -151.780 TC 85 2 242
1983066S11213 1983 14 SP MM REWA 1983-03-11 18:00:00 TS -15.5391 -151.871 main 2192 2192 O_______P_P_O_ jtwc_sh SH171983 -15.4000 -151.900 85 2 -15.9221 -152.085 90 937 -15.4345 -151.600 4 -15.4000 -151.900 TC 85 2 213
1983066S11213 1983 14 SP MM REWA 1983-03-11 21:00:00 TS -15.6157 -151.875 main 2192 2192 P_______P_P_P_ SH171983 -15.4924 -151.925 85 2 -15.9618 -152.039 92 933 -15.5164 -151.612 4 -15.4924 -151.925 TC 85 2 143
1983066S11213 1983 14 SP MM REWA 1983-03-12 00:00:00 TS -15.7000 -151.750 95 930 wellington main 2214 2204 O_______O_O_O_ jtwc_sh SH171983 -15.6000 -151.800 85 2 -16.0000 -151.900 95 930 -15.6000 -151.500 4 -15.6000 -151.800 TC 85 4 111
1983066S11213 1983 14 SP MM REWA 1983-03-12 03:00:00 TS -15.7720 -151.457 main 2236 2236 P_______P_P_P_ SH171983 -15.6851 -151.495 83 2 -16.0502 -151.648 96 928 -15.6675 -151.192 4 -15.6851 -151.495 TC 82 7 104
1983066S11213 1983 14 SP MM REWA 1983-03-12 06:00:00 TS -15.8591 -151.067 main 2280 2280 O_______P_P_O_ jtwc_sh SH171983 -15.8000 -151.100 82 1 -16.1003 -151.305 97 927 -15.7359 -150.763 4 -15.8000 -151.100 TC 80 8 106
1983066S11213 1983 14 SP MM REWA 1983-03-12 09:00:00 TS -15.9941 -150.675 main 2323 2323 P_______P_P_P_ SH171983 -16.0074 -150.758 81 1 -16.1502 -150.910 98 926 -15.8113 -150.277 4 -16.0074 -150.758 TC 80 8 109
1983066S11213 1983 14 SP MM REWA 1983-03-12 12:00:00 TS -16.1250 -150.275 100 925 wellington main 2366 2366 O_______O_O_O_ jtwc_sh SH171983 -16.2000 -150.400 80 1 -16.2000 -150.500 100 925 -15.9000 -149.800 4 -16.2000 -150.400 TC 80 8 104
1983066S11213 1983 14 SP MM REWA 1983-03-12 15:00:00 TS -16.1856 -149.896 main 2409 2409 P_______P_P_P_ SH171983 -16.2575 -150.000 78 1 -16.2334 -150.148 98 926 -15.9939 -149.436 4 -16.2575 -150.000 TC 77 7 99
1983066S11213 1983 14 SP MM REWA 1983-03-12 18:00:00 TS -16.2435 -149.520 main 2452 2452 O_______P_P_O_ jtwc_sh SH171983 -16.3000 -149.600 77 1 -16.2695 -149.787 97 927 -16.1044 -149.092 4 -16.3000 -149.600 TC 75 7 104
1983066S11213 1983 14 SP MM REWA 1983-03-12 21:00:00 TS -16.3571 -149.165 main 2485 2485 P_______P_P_P_ SH171983 -16.4349 -149.250 76 1 -16.3208 -149.407 96 928 -16.2377 -148.752 4 -16.4349 -149.250 TC 75 7 110
1983066S11213 1983 14 SP MM REWA 1983-03-13 00:00:00 TS -16.5000 -148.800 95 930 wellington main 2529 2529 O_______O_O_O_ jtwc_sh SH171983 -16.6000 -148.900 75 1 -16.4000 -149.000 95 930 -16.4000 -148.400 4 -16.6000 -148.900 TC 75 8 111
1983066S11213 1983 14 SP MM REWA 1983-03-13 03:00:00 TS -16.6355 -148.405 main 2572 2572 P_______P_P_P_ SH171983 -16.7350 -148.507 72 1 -16.4843 -148.577 92 933 -16.5879 -148.026 4 -16.7350 -148.507 TC 72 8 111
1983066S11213 1983 14 SP MM REWA 1983-03-13 06:00:00 TS -16.8016 -147.990 main 2616 2616 O_______P_P_O_ jtwc_sh SH171983 -16.9000 -148.100 70 1 -16.6018 -148.124 90 937 -16.8046 -147.637 4 -16.9000 -148.100 TC 70 9 116
1983066S11213 1983 14 SP MM REWA 1983-03-13 09:00:00 TS -17.0242 -147.588 main 2660 2660 P_______P_P_P_ SH171983 -17.1421 -147.745 67 1 -16.7684 -147.633 87 941 -17.0440 -147.229 4 -17.1421 -147.745 TC 67 10 120
1983066S11213 1983 14 SP MM REWA 1983-03-13 12:00:00 TS -17.2750 -147.125 85 945 wellington main 2716 2716 O_______O_O_O_ jtwc_sh SH171983 -17.4000 -147.300 65 1 -17.0000 -147.100 85 945 -17.3000 -146.800 4 -17.4000 -147.300 TC 65 11 116
1983066S11213 1983 14 SP MM REWA 1983-03-13 15:00:00 TS -17.4976 -146.550 main 2770 2770 P_______P_P_P_ SH171983 -17.5927 -146.645 63 0 -17.2819 -146.522 81 950 -17.5231 -146.390 4 -17.5927 -146.645 TC 62 13 112
1983066S11213 1983 14 SP MM REWA 1983-03-13 18:00:00 TS -17.7490 -145.913 main 2846 2846 O_______P_P_O_ jtwc_sh SH171983 -17.8000 -145.900 62 0 -17.6300 -145.902 77 955 -17.7660 -145.952 4 -17.8000 -145.900 TC 60 13 115
1983066S11213 1983 14 SP MM REWA 1983-03-13 21:00:00 TS -18.0572 -145.269 main 2914 2914 P_______P_P_P_ SH171983 -18.0700 -145.177 61 0 -18.0380 -145.256 73 960 -18.0509 -145.464 4 -18.0700 -145.177 TC 60 14 119
1983066S11213 1983 14 SP MM REWA 1983-03-14 00:00:00 TS -18.4250 -144.625 70 965 wellington main 2990 2990 O_______O_O_O_ jtwc_sh SH171983 -18.4000 -144.500 60 0 -18.5000 -144.600 70 965 -18.4000 -144.900 4 -18.4000 -144.500 TC 60 14 123
1983066S11213 1983 14 SP MM REWA 1983-03-14 03:00:00 TS -18.8321 -144.002 main 3058 3058 P_______P_P_P_ SH171983 -18.7548 -143.912 58 0 -19.0034 -143.949 67 967 -18.8154 -144.233 4 -18.7548 -143.912 TC 57 15 127
1983066S11213 1983 14 SP MM REWA 1983-03-14 06:00:00 TS -19.3125 -143.395 main 3127 3127 O_______P_P_O_ jtwc_sh SH171983 -19.2000 -143.400 57 0 -19.5546 -143.292 65 970 -19.2955 -143.489 4 -19.2000 -143.400 TC 55 15 133
1983066S11213 1983 14 SP MM REWA 1983-03-14 09:00:00 TS -19.8739 -142.806 main 3198 3198 P_______P_P_P_ SH171983 -19.7697 -142.942 56 0 -20.1285 -142.639 62 972 -19.8277 -142.701 4 -19.7697 -142.942 TC 55 16 137
1983066S11213 1983 14 SP MM REWA 1983-03-14 12:00:00 TS -20.4750 -142.225 60 975 wellington main 3269 3269 O_______O_O_O_ jtwc_sh SH171983 -20.4000 -142.500 55 0 -20.7000 -142.000 60 975 -20.4000 -141.900 4 -20.4000 -142.500 TC 55 16 137
1983066S11213 1983 14 SP MM REWA 1983-03-14 15:00:00 TS -21.0433 -141.626 main 3339 3339 P_______P_P_P_ SH171983 -20.9925 -142.000 53 0 -21.1865 -141.390 56 978 -21.0016 -141.113 4 -20.9925 -142.000 TC 52 16 137
1983066S11213 1983 14 SP MM REWA 1983-03-14 18:00:00 TS -21.6245 -141.080 main 3401 3401 O_______P_P_O_ jtwc_sh SH171983 -21.6000 -141.500 52 0 -21.6736 -140.795 52 981 -21.6242 -140.338 4 -21.6000 -141.500 TC 50 15 142
1983066S11213 1983 14 SP MM REWA 1983-03-14 21:00:00 TS -22.2322 -140.617 main 3463 3463 P_______P_P_P_ SH171983 -22.2419 -141.086 51 0 -22.1990 -140.202 48 984 -22.2598 -139.569 4 -22.2419 -141.086 TC 50 15 145
1983066S11213 1983 14 SP MM REWA 1983-03-15 00:00:00 TS -22.8692 -140.154 45 987 wellington main 3518 3518 O_______O_O_O_ jtwc_sh SH171983 -22.9000 -140.600 50 0 -22.8000 -139.600 45 987 -22.9000 -138.800 2 -22.9000 -140.600 TC 50 16 144
1983066S11213 1983 14 SP MM REWA 1983-03-15 03:00:00 TS -23.5342 -139.604 main 3592 3592 P_______P___P_ SH171983 -23.5499 -139.917 47 0 -23.5030 -138.978 42 989 2 -23.5499 -139.917 TC 47 18 139
1983066S11213 1983 14 SP MM REWA 1983-03-15 06:00:00 TS -24.2246 -138.891 main 3677 3677 O_______P___O_ jtwc_sh SH171983 -24.2000 -139.100 45 0 -24.2902 -138.335 40 991 2 -24.2000 -139.100 TC 45 19 136
1983066S11213 1983 14 SP MM REWA 1983-03-15 09:00:00 TS -24.9182 -138.119 main 3773 3773 P_______P___P_ SH171983 -24.8647 -138.230 42 0 -25.1323 -137.674 37 993 2 -24.8647 -138.230 TC 42 20 132
1983066S11213 1983 14 SP MM REWA 1983-03-15 12:00:00 TS -25.5556 -137.267 35 995 wellington main 3869 3869 O_______O___O_ jtwc_sh SH171983 -25.5000 -137.300 40 0 -26.0000 -137.000 35 995 -25.5000 -137.300 TC 40 20 126
1983066S11213 1983 14 SP MM REWA 1983-03-15 15:00:00 TS -26.0795 -136.357 main 3969 3969 P___________P_ SH171983 -26.0795 -136.357 37 0 -26.0795 -136.357 TC 37 20 122
1983066S11213 1983 14 SP MM REWA 1983-03-15 18:00:00 TS -26.6000 -135.400 main 4079 4079 O___________O_ jtwc_sh SH171983 -26.6000 -135.400 35 0 -26.6000 -135.400 TC 35 20 120
1983066S11213 1983 14 SP MM REWA 1983-03-15 21:00:00 TS -27.0662 -134.449 main 4188 4188 P___________P_ SH171983 -27.0662 -134.449 32 -1 -27.0662 -134.449 TC 32 19 118
1983066S11213 1983 14 SP MM REWA 1983-03-16 00:00:00 TS -27.5000 -133.500 main 4285 O___________O_ jtwc_sh SH171983 -27.5000 -133.500 30 -1 -27.5000 -133.500 TC 30 19 117

Digital Typhoon Data and Search

About IBTrACS Database

This database is a web-friendly format of International Best Track Archive for Climate Stewardship (IBTrACS), a global best track data archive curated by NOAA dating back to 1842.

Updated: 2021-10-08